Roque Gonzales, Brazil
Current Conditions -  °F | °C
As of 6:00 AM on Wednesday 26 Nov 2014 (Local Time) from SARP Reporting Station
Few Clouds Few Clouds  
Wind Chill: 70°   Ceiling: Unl
Heat Index: 70°   Visibility: 6mi
Dew Point: 68°   Wind: 5mph
Humidity: 94%   Direction: 180°S
Pressure: 29.8"   Gusts: NA
Location:  28.13°S, 55.03°W
Report Text: SARP 260800Z 18004KT 9999 FEW008 21/20 Q1009
Loading
Personal Weather Stations






























Interactive Weather Map New forecast layout! Learn more

10-Day Weather Forecast

Advertisements
Track Severe Weather on mobile